Time;durP1;ratioP1;P1;durP2;ratioP2;P2;SDS_P1;SDS_P2;PMS_P1;PMS_P2;Temp;Humidity;BMP_temperature;BMP_pressure;BME280_temperature;BME280_humidity;BME280_pressure;Samples;Min_cycle;Max_cycle;Signal;HPM_P1;HPM_P2
2022/08/23 00:01:26;;;;;;;4.85;3.10;;;15.60;99.90;;;;;;5092527;28;20044;-46
2022/08/23 00:03:59;;;;;;;3.38;2.67;;;15.60;99.90;;;;;;5087981;28;20047;-46
2022/08/23 00:06:27;;;;;;;7.72;3.17;;;15.60;99.90;;;;;;5092535;28;20047;-46
2022/08/23 00:08:55;;;;;;;5.85;3.15;;;15.60;99.90;;;;;;5093245;28;20040;-46
2022/08/23 00:11:37;;;;;;;5.28;2.85;;;15.60;99.90;;;;;;5084578;28;20503;-47
2022/08/23 00:14:08;;;;;;;6.15;3.42;;;15.70;99.90;;;;;;5092761;28;20488;-46
2022/08/23 00:16:35;;;;;;;6.70;3.22;;;15.70;99.90;;;;;;5092809;28;20051;-48
2022/08/23 00:19:06;;;;;;;6.43;3.17;;;15.70;99.90;;;;;;5086908;28;20059;-47
2022/08/23 00:21:36;;;;;;;3.53;2.92;;;15.70;99.90;;;;;;5091693;28;20110;-47
2022/08/23 00:24:05;;;;;;;5.20;3.50;;;15.70;99.90;;;;;;5092337;28;20044;-47
2022/08/23 00:26:54;;;;;;;6.30;3.70;;;15.70;99.90;;;;;;5086172;28;20048;-46
2022/08/23 00:29:25;;;;;;;5.93;4.05;;;15.70;99.90;;;;;;5092211;28;20168;-46
2022/08/23 00:31:53;;;;;;;6.50;4.32;;;15.60;99.90;;;;;;5092817;28;20492;-46
2022/08/23 00:34:20;;;;;;;5.97;4.60;;;15.70;99.90;;;;;;5090022;28;20044;-46
2022/08/23 00:36:49;;;;;;;6.55;4.40;;;15.60;99.90;;;;;;5071884;28;20062;-47
2022/08/23 00:39:17;;;;;;;7.15;4.07;;;15.60;99.90;;;;;;5073766;28;20052;-47
2022/08/23 00:41:46;;;;;;;6.97;4.40;;;15.50;99.90;;;;;;5085297;28;20043;-47
2022/08/23 00:50:14;;;;;;;9.57;4.47;;;15.50;99.90;;;;;;5072404;28;20052;-47
2022/08/23 00:53:07;;;;;;;6.05;4.28;;;15.40;99.90;;;;;;5065188;28;20036;-47
2022/08/23 00:55:35;;;;;;;6.75;4.93;;;15.40;99.90;;;;;;5070102;28;20059;-46
2022/08/23 00:58:02;;;;;;;7.35;4.97;;;15.40;99.90;;;;;;5082390;28;20496;-48
2022/08/23 01:00:31;;;;;;;10.45;4.75;;;15.40;99.90;;;;;;5072561;28;20050;-46
2022/08/23 01:02:58;;;;;;;7.78;4.57;;;15.40;99.90;;;;;;5092274;28;20040;-46
2022/08/23 01:05:30;;;;;;;7.18;4.28;;;15.30;99.90;;;;;;5068931;28;20538;-46
2022/08/23 01:07:58;;;;;;;7.75;3.80;;;15.30;99.90;;;;;;5070688;28;20048;-47
2022/08/23 01:10:31;;;;;;;5.43;4.28;;;15.30;99.90;;;;;;5071602;28;20052;-46
2022/08/23 01:13:07;;;;;;;4.32;3.90;;;15.30;99.90;;;;;;5091963;28;20097;-46
2022/08/23 01:15:46;;;;;;;6.90;4.68;;;15.40;99.90;;;;;;5091212;28;20538;-46
2022/08/23 01:18:15;;;;;;;6.53;4.15;;;15.40;99.90;;;;;;5072242;28;20044;-46
2022/08/23 01:20:54;;;;;;;8.48;3.70;;;15.40;99.90;;;;;;5083496;28;20531;-47
2022/08/23 01:23:35;;;;;;;7.47;4.28;;;15.50;99.90;;;;;;5071624;28;20051;-47
2022/08/23 01:26:03;;;;;;;4.85;4.32;;;15.40;99.90;;;;;;5069794;28;20051;-46
2022/08/23 01:28:32;;;;;;;8.35;4.30;;;15.40;99.90;;;;;;5077599;28;20037;-46
2022/08/23 01:31:00;;;;;;;5.88;4.47;;;15.30;99.90;;;;;;5090418;28;20040;-46
2022/08/23 01:33:28;;;;;;;6.25;4.03;;;15.30;99.90;;;;;;5078487;28;20044;-47
2022/08/23 01:35:57;;;;;;;7.70;4.43;;;15.30;99.90;;;;;;5071614;28;20040;-47
2022/08/23 01:38:26;;;;;;;4.53;3.75;;;15.20;99.90;;;;;;5071470;28;20556;-46
2022/08/23 01:40:58;;;;;;;6.15;4.45;;;15.30;99.90;;;;;;5071864;28;20036;-46
2022/08/23 01:43:25;;;;;;;5.60;4.28;;;15.30;99.90;;;;;;5090773;28;20067;-48
2022/08/23 01:45:53;;;;;;;8.05;4.40;;;15.30;99.90;;;;;;5072416;28;20381;-46
2022/08/23 01:48:22;;;;;;;7.05;4.25;;;15.40;99.90;;;;;;5087412;28;20041;-47
2022/08/23 01:50:49;;;;;;;8.98;4.50;;;15.40;99.90;;;;;;5091460;28;20036;-46
2022/08/23 01:53:16;;;;;;;5.82;4.20;;;15.40;99.90;;;;;;5073165;28;20044;-47
2022/08/23 01:55:47;;;;;;;7.38;3.88;;;15.40;99.90;;;;;;5072940;28;20036;-46
2022/08/23 01:58:16;;;;;;;7.15;4.13;;;15.40;99.90;;;;;;5060751;28;20447;-47
2022/08/23 02:00:44;;;;;;;5.97;4.18;;;15.30;99.90;;;;;;5072010;28;20089;-47
2022/08/23 02:03:12;;;;;;;6.78;4.20;;;15.30;99.90;;;;;;5088522;28;20040;-46
2022/08/23 02:05:39;;;;;;;;;;;15.30;99.90;;;;;;5071339;28;20078;-46
2022/08/23 02:10:54;;;;;;;8.02;4.50;;;15.30;99.90;;;;;;5072408;28;20140;-47
2022/08/23 02:13:24;;;;;;;6.03;4.38;;;15.40;99.90;;;;;;5086679;28;20044;-46
2022/08/23 02:15:51;;;;;;;6.05;4.78;;;15.40;99.90;;;;;;5063776;28;20157;-46
2022/08/23 02:18:19;;;;;;;9.85;4.70;;;15.40;99.90;;;;;;5074575;28;20567;-46
2022/08/23 02:20:49;;;;;;;6.93;4.03;;;15.40;99.90;;;;;;5093967;28;20447;-46
2022/08/23 02:23:17;;;;;;;5.63;4.57;;;15.30;99.90;;;;;;5076166;28;20040;-46
2022/08/23 02:25:44;;;;;;;6.88;4.35;;;15.30;99.90;;;;;;5094973;28;20071;-46
2022/08/23 02:28:12;;;;;;;11.23;4.90;;;15.30;99.90;;;;;;5089740;28;20428;-46
2022/08/23 02:30:39;;;;;;;6.90;4.10;;;15.30;99.90;;;;;;5093900;28;20044;-46
2022/08/23 02:33:08;;;;;;;5.38;4.50;;;15.30;99.90;;;;;;5075731;28;20067;-46
2022/08/23 02:35:36;;;;;;;7.22;4.65;;;15.20;99.90;;;;;;5089877;28;20044;-46
2022/08/23 02:38:05;;;;;;;7.20;4.97;;;15.20;99.90;;;;;;5089278;28;20044;-47
2022/08/23 02:40:34;;;;;;;7.20;4.60;;;15.20;99.90;;;;;;5091926;28;20130;-46
2022/08/23 02:43:02;;;;;;;8.77;4.85;;;15.30;99.90;;;;;;5074663;28;20036;-46
2022/08/23 02:45:30;;;;;;;5.70;4.82;;;15.30;99.90;;;;;;5089785;28;20044;-46
2022/08/23 02:47:58;;;;;;;8.10;4.90;;;15.30;99.90;;;;;;5089714;28;20098;-46
2022/08/23 02:50:33;;;;;;;7.22;4.97;;;15.20;99.90;;;;;;5074146;28;20131;-47
2022/08/23 02:53:03;;;;;;;9.80;5.15;;;15.30;99.90;;;;;;5091513;28;20063;-46
2022/08/23 02:55:31;;;;;;;7.28;4.50;;;15.20;99.90;;;;;;5064047;28;20131;-46
2022/08/23 02:57:58;;;;;;;9.40;5.22;;;15.30;99.90;;;;;;5071789;28;20052;-46
2022/08/23 03:00:26;;;;;;;;;;;15.30;99.90;;;;;;5061089;28;20045;-46
2022/08/23 03:02:53;;;;;;;6.95;5.32;;;15.30;99.90;;;;;;5076032;28;20443;-47
2022/08/23 03:05:20;;;;;;;9.85;4.85;;;15.20;99.90;;;;;;5075782;28;20274;-46
2022/08/23 03:07:47;;;;;;;6.55;4.15;;;15.30;99.90;;;;;;5091854;28;20048;-47
2022/08/23 03:10:15;;;;;;;7.10;4.53;;;15.20;99.90;;;;;;5073967;28;20076;-46
2022/08/23 03:12:50;;;;;;;8.95;4.60;;;15.20;99.90;;;;;;5075236;28;20044;-46
2022/08/23 03:15:17;;;;;;;6.47;4.30;;;15.20;99.90;;;;;;5092061;28;20053;-46
2022/08/23 03:17:45;;;;;;;7.95;4.85;;;15.10;99.90;;;;;;5085066;22;20058;-47
2022/08/23 03:20:12;;;;;;;7.18;4.90;;;15.10;99.90;;;;;;5054951;28;20055;-50
2022/08/23 03:22:41;;;;;;;5.88;4.43;;;15.10;99.90;;;;;;5059925;28;20044;-48
2022/08/23 03:25:21;;;;;;;5.43;4.53;;;15.10;99.90;;;;;;5055618;28;20044;-48
2022/08/23 03:28:04;;;;;;;5.72;3.40;;;15.10;99.90;;;;;;5067796;28;20132;-48
2022/08/23 03:30:34;;;;;;;5.22;3.47;;;15.10;99.90;;;;;;5046300;28;20060;-48
2022/08/23 03:33:03;;;;;;;6.90;3.60;;;15.00;99.90;;;;;;5042690;28;20068;-48
2022/08/23 03:35:30;;;;;;;;;;;14.90;99.90;;;;;;5058386;28;20037;-47
2022/08/23 03:37:57;;;;;;;7.70;4.30;;;14.90;99.90;;;;;;5035518;28;20379;-47
2022/08/23 03:40:24;;;;;;;7.05;4.20;;;14.90;99.90;;;;;;5061404;28;20041;-47
2022/08/23 03:42:51;;;;;;;6.93;4.40;;;14.90;99.90;;;;;;5026842;28;20132;-47
2022/08/23 03:45:21;;;;;;;7.75;4.20;;;14.80;99.90;;;;;;5042382;28;20148;-47
2022/08/23 03:47:49;;;;;;;7.43;4.15;;;14.70;99.90;;;;;;5043576;28;20048;-47
2022/08/23 03:50:16;;;;;;;4.53;3.75;;;14.60;99.90;;;;;;5045808;28;20433;-48
2022/08/23 03:52:43;;;;;;;9.57;4.30;;;14.60;99.90;;;;;;5039195;28;20460;-48
2022/08/23 03:55:10;;;;;;;8.02;4.18;;;14.50;99.90;;;;;;5039888;28;20060;-48
2022/08/23 03:57:41;;;;;;;5.80;4.60;;;14.50;99.90;;;;;;5036470;28;20073;-47
2022/08/23 04:00:11;;;;;;;8.38;5.25;;;14.50;99.90;;;;;;5035350;28;20037;-48
2022/08/23 04:02:42;;;;;;;8.15;5.05;;;14.60;99.90;;;;;;5038209;28;20501;-47
2022/08/23 04:05:11;;;;;;;11.90;5.03;;;14.70;99.90;;;;;;5035463;28;20131;-47
2022/08/23 04:07:55;;;;;;;8.23;5.22;;;14.70;99.90;;;;;;5054753;28;20048;-48
2022/08/23 04:10:24;;;;;;;6.85;4.78;;;14.80;99.90;;;;;;5043508;28;20060;-47
2022/08/23 04:12:53;;;;;;;13.02;7.82;;;14.80;99.90;;;;;;5042885;28;20067;-47
2022/08/23 04:15:21;;;;;;;16.63;8.93;;;14.80;99.90;;;;;;5034047;28;20037;-47
2022/08/23 04:17:48;;;;;;;12.27;7.78;;;14.80;99.90;;;;;;5061209;28;20045;-46
2022/08/23 04:20:15;;;;;;;14.00;7.15;;;14.80;99.90;;;;;;5032494;28;20059;-45
2022/08/23 04:22:56;;;;;;;9.35;5.90;;;14.80;99.90;;;;;;5035048;28;20041;-45
2022/08/23 04:25:26;;;;;;;6.90;5.13;;;14.80;99.90;;;;;;5031892;28;20037;-47
2022/08/23 04:27:59;;;;;;;10.75;7.00;;;14.90;99.90;;;;;;5035014;28;20508;-48
2022/08/23 04:30:28;;;;;;;12.05;6.68;;;14.90;99.90;;;;;;5053686;28;20025;-49
2022/08/23 04:32:56;;;;;;;10.05;4.95;;;14.90;99.90;;;;;;5042714;28;20084;-49
2022/08/23 04:35:24;;;;;;;6.93;4.45;;;14.90;99.90;;;;;;5043910;28;20033;-48
2022/08/23 04:37:52;;;;;;;6.93;4.13;;;14.90;99.90;;;;;;5038165;28;20127;-48
2022/08/23 04:43:07;;;;;;;6.53;4.78;;;14.90;99.90;;;;;;5040366;28;20091;-48
2022/08/23 04:45:37;;;;;;;6.03;4.32;;;14.90;99.90;;;;;;5034915;28;20094;-47
2022/08/23 04:48:08;;;;;;;8.18;5.13;;;14.90;99.90;;;;;;5032525;28;20409;-48
2022/08/23 04:50:40;;;;;;;9.55;5.13;;;14.90;99.90;;;;;;5033033;28;20425;-47
2022/08/23 04:53:13;;;;;;;5.90;4.00;;;15.00;99.90;;;;;;5037405;28;20041;-48
2022/08/23 04:55:51;;;;;;;7.03;4.47;;;15.00;99.90;;;;;;5041472;28;20037;-47
2022/08/23 04:58:18;;;;;;;5.65;3.65;;;15.00;99.90;;;;;;5040120;28;20044;-47
2022/08/23 05:00:50;;;;;;;;;;;15.00;99.90;;;;;;5037716;28;20053;-47
2022/08/23 05:03:22;;;;;;;8.80;4.10;;;15.00;99.90;;;;;;5027632;28;19999;-47
2022/08/23 05:05:51;;;;;;;;;;;15.10;99.90;;;;;;5051624;28;20063;-47
2022/08/23 05:08:19;;;;;;;7.38;3.55;;;15.10;99.90;;;;;;5030591;28;19946;-47
2022/08/23 05:10:47;;;;;;;5.47;3.90;;;15.20;99.90;;;;;;5032445;28;20041;-47
2022/08/23 05:13:14;;;;;;;7.53;3.88;;;15.20;99.90;;;;;;5033533;28;20049;-47
2022/08/23 05:15:41;;;;;;;6.55;3.50;;;15.20;99.90;;;;;;5050581;28;20040;-48
2022/08/23 05:18:08;;;;;;;5.88;3.50;;;15.20;99.90;;;;;;5031581;28;20175;-50
2022/08/23 05:20:38;;;;;;;6.28;3.70;;;15.20;99.90;;;;;;5029435;28;20460;-47
2022/08/23 05:23:05;;;;;;;5.22;3.58;;;15.30;99.90;;;;;;5018665;28;20073;-48
2022/08/23 05:25:49;;;;;;;7.70;4.05;;;15.20;99.90;;;;;;5042283;28;20051;-48
2022/08/23 05:28:33;;;;;;;5.82;3.58;;;15.20;99.90;;;;;;5031803;28;20068;-47
2022/08/23 05:31:13;;;;;;;8.40;3.65;;;15.20;99.90;;;;;;5032344;28;20508;-48
2022/08/23 05:33:46;;;;;;;7.03;3.95;;;15.30;99.90;;;;;;5031998;28;20045;-48
2022/08/23 05:36:19;;;;;;;4.70;3.80;;;15.30;99.90;;;;;;5033452;28;20442;-47
2022/08/23 05:38:46;;;;;;;6.82;3.65;;;15.40;99.90;;;;;;5031043;28;20052;-47
2022/08/23 05:41:14;;;;;;;4.90;3.78;;;15.40;99.90;;;;;;5029764;28;20052;-47
2022/08/23 05:43:41;;;;;;;6.18;3.75;;;15.40;99.90;;;;;;5031946;28;20048;-47
2022/08/23 05:46:14;;;;;;;4.60;3.38;;;15.50;99.90;;;;;;5032431;28;20417;-47
2022/08/23 05:48:53;;;;;;;5.57;3.65;;;15.50;99.90;;;;;;5018900;28;20103;-47
2022/08/23 05:51:29;;;;;;;6.53;4.00;;;15.60;99.90;;;;;;5031307;28;20532;-47
2022/08/23 05:53:59;;;;;;;8.05;3.90;;;15.60;99.90;;;;;;5050265;28;20373;-47
2022/08/23 05:56:36;;;;;;;6.22;3.40;;;15.50;99.90;;;;;;5033145;28;20055;-48
2022/08/23 05:59:06;;;;;;;5.82;4.00;;;15.50;99.90;;;;;;5047075;28;20037;-47
2022/08/23 06:01:39;;;;;;;4.35;3.95;;;15.40;99.90;;;;;;5033309;28;20033;-47
2022/08/23 06:04:13;;;;;;;4.75;3.63;;;15.30;99.90;;;;;;5030934;28;20095;-49
2022/08/23 06:06:43;;;;;;;10.75;4.10;;;15.10;99.90;;;;;;5033073;28;20051;-47
2022/08/23 06:09:12;;;;;;;;;;;15.10;99.90;;;;;;5032275;28;20095;-47
2022/08/23 06:11:41;;;;;;;6.40;3.97;;;15.10;99.90;;;;;;5033414;28;19921;-47
2022/08/23 06:14:08;;;;;;;5.78;3.95;;;15.00;99.90;;;;;;5029028;28;20078;-47
2022/08/23 06:16:39;;;;;;;8.35;4.13;;;15.00;99.90;;;;;;5016525;28;20037;-47
2022/08/23 06:19:07;;;;;;;6.10;4.20;;;15.00;99.90;;;;;;5032985;28;20071;-47
2022/08/23 06:21:54;;;;;;;5.05;3.72;;;15.00;99.90;;;;;;5044416;28;20524;-46
2022/08/23 06:24:29;;;;;;;6.35;4.00;;;15.10;99.90;;;;;;5032493;28;20500;-47
2022/08/23 06:27:06;;;;;;;6.22;4.00;;;15.20;99.90;;;;;;5032706;28;20045;-47
2022/08/23 06:29:33;;;;;;;4.90;3.75;;;15.20;99.90;;;;;;5013961;28;20414;-47
2022/08/23 06:32:19;;;;;;;4.65;3.92;;;15.30;99.90;;;;;;5050914;28;20106;-47
2022/08/23 06:35:06;;;;;;;4.10;3.70;;;15.40;99.90;;;;;;5049958;28;20056;-47
2022/08/23 06:37:56;;;;;;;6.28;4.13;;;15.60;99.90;;;;;;5030215;28;20035;-47
2022/08/23 06:40:42;;;;;;;4.88;4.00;;;15.70;99.90;;;;;;5044762;28;20048;-47
2022/08/23 06:43:24;;;;;;;8.05;3.70;;;16.00;99.90;;;;;;5049589;28;20037;-47
2022/08/23 06:46:23;;;;;;;7.88;3.70;;;16.20;99.90;;;;;;5028153;28;20064;-48
2022/08/23 06:48:55;;;;;;;5.78;4.05;;;16.40;99.90;;;;;;5027109;28;20076;-49
2022/08/23 06:51:29;;;;;;;4.88;3.45;;;16.60;99.90;;;;;;5032774;28;20538;-47
2022/08/23 06:54:19;;;;;;;9.82;3.35;;;16.70;99.90;;;;;;5050322;28;20060;-47
2022/08/23 06:57:12;;;;;;;4.88;3.55;;;16.80;99.90;;;;;;5029873;28;20052;-47
2022/08/23 07:00:17;;;;;;;10.18;4.00;;;17.00;99.90;;;;;;5049244;28;20059;-47
2022/08/23 07:03:07;;;;;;;5.60;3.63;;;17.10;99.90;;;;;;5039449;28;20048;-47
2022/08/23 07:06:09;;;;;;;5.10;3.70;;;17.30;99.90;;;;;;4972867;28;20069;-47
2022/08/23 07:08:36;;;;;;;7.25;4.05;;;17.40;99.90;;;;;;5018197;28;20520;-47
2022/08/23 07:11:03;;;;;;;5.50;3.53;;;17.50;99.90;;;;;;5036049;28;20080;-47
2022/08/23 07:13:30;;;;;;;;;;;17.60;99.90;;;;;;5036314;28;20052;-47
2022/08/23 07:16:02;;;;;;;7.10;3.90;;;17.60;99.90;;;;;;5035861;28;20418;-47
2022/08/23 07:18:31;;;;;;;6.25;3.42;;;17.80;99.90;;;;;;5034786;28;20041;-48
2022/08/23 07:21:01;;;;;;;7.70;3.42;;;17.90;99.90;;;;;;5034367;28;20045;-47
2022/08/23 07:23:33;;;;;;;5.75;3.38;;;18.00;99.90;;;;;;5035707;28;20374;-47
2022/08/23 07:26:07;;;;;;;6.53;4.22;;;17.80;99.90;;;;;;5034512;28;20053;-48
2022/08/23 07:28:34;;;;;;;10.00;4.57;;;17.80;99.90;;;;;;5015168;28;20103;-47
2022/08/23 07:31:10;;;;;;;7.78;4.22;;;17.90;99.90;;;;;;5015730;28;20051;-47
2022/08/23 07:33:42;;;;;;;6.97;4.55;;;18.00;99.90;;;;;;5022488;28;20370;-47
2022/08/23 07:36:17;;;;;;;9.48;3.80;;;18.10;99.90;;;;;;5035639;28;20055;-47
2022/08/23 07:38:45;;;;;;;4.85;3.67;;;18.20;99.90;;;;;;5035484;28;20398;-47
2022/08/23 07:41:13;;;;;;;7.07;3.85;;;18.10;99.90;;;;;;5035686;28;20531;-48
2022/08/23 07:43:40;;;;;;;;;;;18.10;99.90;;;;;;5034569;28;20528;-47
2022/08/23 07:46:09;;;;;;;7.07;3.80;;;18.10;99.90;;;;;;5035443;28;19921;-48
2022/08/23 07:48:38;;;;;;;6.35;3.72;;;18.20;99.90;;;;;;5034206;28;20033;-47
2022/08/23 07:51:24;;;;;;;4.55;3.50;;;18.30;99.90;;;;;;5032451;28;20420;-47
2022/08/23 07:53:51;;;;;;;8.80;4.22;;;18.50;99.90;;;;;;5052424;28;20040;-47
2022/08/23 07:56:20;;;;;;;4.78;3.83;;;18.60;99.90;;;;;;5018129;28;20045;-47
2022/08/23 07:59:04;;;;;;;5.68;4.38;;;18.70;99.90;;;;;;5035459;28;20069;-48
2022/08/23 08:01:34;;;;;;;7.90;3.90;;;18.80;99.90;;;;;;5047803;28;20037;-47
2022/08/23 08:04:04;;;;;;;5.25;3.88;;;18.80;99.90;;;;;;5034115;28;20045;-45
2022/08/23 08:06:42;;;;;;;10.90;4.35;;;18.90;99.90;;;;;;5031310;28;20049;-45
2022/08/23 08:09:11;;;;;;;5.18;3.78;;;19.00;99.90;;;;;;5034646;28;20052;-51
2022/08/23 08:11:41;;;;;;;6.80;3.67;;;19.00;99.90;;;;;;5034240;28;20049;-47
2022/08/23 08:14:11;;;;;;;13.35;4.20;;;19.10;99.90;;;;;;5034633;28;20056;-45
2022/08/23 08:16:48;;;;;;;7.93;3.67;;;19.20;99.90;;;;;;5033961;28;20095;-47
2022/08/23 08:19:22;;;;;;;7.20;4.07;;;19.20;99.90;;;;;;5034683;28;20045;-45
2022/08/23 08:22:07;;;;;;;5.95;3.85;;;19.30;99.90;;;;;;5045751;28;20048;-46
2022/08/23 08:25:06;;;;;;;8.35;3.30;;;19.30;99.90;;;;;;5052086;28;20071;-47
2022/08/23 08:27:35;;;;;;;6.80;3.63;;;19.30;99.90;;;;;;5034807;28;20044;-46
2022/08/23 08:30:07;;;;;;;6.07;4.15;;;19.40;99.90;;;;;;5030882;28;20067;-47
2022/08/23 08:32:36;;;;;;;5.75;3.42;;;19.40;99.90;;;;;;5023596;28;20056;-48
2022/08/23 08:35:09;;;;;;;5.50;3.78;;;19.50;99.90;;;;;;5046933;28;20048;-45
2022/08/23 08:37:38;;;;;;;9.68;4.38;;;19.60;99.90;;;;;;5033829;28;20131;-45
2022/08/23 08:40:06;;;;;;;7.30;4.00;;;19.80;99.90;;;;;;5034213;28;20072;-47
2022/08/23 08:42:40;;;;;;;5.80;3.85;;;19.90;99.90;;;;;;5032944;28;20473;-49
2022/08/23 08:45:11;;;;;;;4.80;3.72;;;20.10;99.90;;;;;;5033999;28;20043;-48
2022/08/23 08:47:49;;;;;;;8.93;3.65;;;20.10;99.90;;;;;;5033982;28;20079;-49
2022/08/23 08:50:26;;;;;;;7.57;3.20;;;20.30;99.90;;;;;;5034193;28;20053;-47
2022/08/23 08:53:04;;;;;;;9.43;4.28;;;20.30;99.90;;;;;;5033144;28;20041;-48
2022/08/23 08:55:56;;;;;;;5.90;3.70;;;20.40;99.90;;;;;;5051075;28;20574;-48
2022/08/23 08:58:39;;;;;;;6.60;3.72;;;20.30;99.90;;;;;;5032932;28;20072;-48
2022/08/23 09:01:06;;;;;;;11.43;3.33;;;20.30;99.90;;;;;;5033445;28;20041;-48
2022/08/23 09:03:34;;;;;;;4.18;3.25;;;20.30;99.90;;;;;;5033774;28;20048;-49
2022/08/23 09:06:09;;;;;;;6.43;4.18;;;20.40;99.90;;;;;;5032746;28;20523;-48
2022/08/23 09:08:46;;;;;;;5.40;3.40;;;20.40;99.90;;;;;;5027159;28;20489;-47
2022/08/23 09:11:45;;;;;;;7.82;3.58;;;20.50;99.90;;;;;;5033898;28;20040;-48
2022/08/23 09:14:30;;;;;;;6.00;3.50;;;20.60;99.90;;;;;;4977214;28;20053;-47
2022/08/23 09:17:05;;;;;;;6.55;3.55;;;20.70;99.90;;;;;;5033556;28;20094;-48
2022/08/23 09:19:35;;;;;;;3.88;3.40;;;20.80;99.90;;;;;;5083219;22;20513;-48
2022/08/23 09:22:12;;;;;;;6.60;3.35;;;20.90;99.90;;;;;;5097213;28;20319;-47
2022/08/23 09:24:40;;;;;;;5.57;3.00;;;21.00;99.90;;;;;;5109907;28;20403;-48
2022/08/23 09:27:18;;;;;;;4.28;2.83;;;21.20;99.90;;;;;;5094569;28;20058;-48
2022/08/23 09:29:56;;;;;;;7.03;3.20;;;21.50;99.90;;;;;;5073588;28;20048;-50
2022/08/23 09:32:32;;;;;;;5.40;3.13;;;21.30;99.90;;;;;;5088200;28;20048;-47
2022/08/23 09:35:16;;;;;;;4.72;2.70;;;21.40;99.90;;;;;;5089844;28;20101;-49
2022/08/23 09:38:14;;;;;;;3.35;2.65;;;21.50;99.90;;;;;;5087408;28;20048;-49
2022/08/23 09:40:47;;;;;;;9.52;4.32;;;21.60;99.90;;;;;;5089654;28;20128;-48
2022/08/23 09:43:19;;;;;;;4.63;2.97;;;21.70;99.90;;;;;;5090176;28;20551;-49
2022/08/23 09:45:49;;;;;;;5.45;2.58;;;21.80;99.90;;;;;;5080547;28;20408;-49
2022/08/23 09:48:41;;;;;;;4.60;2.58;;;21.90;99.90;;;;;;5066819;28;20059;-48
2022/08/23 09:51:23;;;;;;;5.65;2.40;;;21.80;99.90;;;;;;5077945;28;20071;-49
2022/08/23 09:54:17;;;;;;;6.35;2.60;;;21.90;99.90;;;;;;5089745;28;20055;-47
2022/08/23 09:56:53;;;;;;;6.80;3.22;;;22.10;99.90;;;;;;5087148;28;20043;-48
2022/08/23 09:59:26;;;;;;;9.25;2.97;;;22.20;99.90;;;;;;5090065;28;20085;-48
2022/08/23 10:02:03;;;;;;;6.80;2.90;;;22.50;99.90;;;;;;5089032;28;20040;-50
2022/08/23 10:04:36;;;;;;;4.80;2.40;;;22.40;99.90;;;;;;5080900;28;20107;-48
2022/08/23 10:07:33;;;;;;;4.28;2.22;;;22.50;99.90;;;;;;5084245;28;20130;-48
2022/08/23 10:10:24;;;;;;;2.45;2.25;;;22.70;99.90;;;;;;5089405;28;20056;-47
2022/08/23 10:12:57;;;;;;;3.42;2.20;;;22.80;99.90;;;;;;5090399;28;20116;-48
2022/08/23 10:15:42;;;;;;;5.35;2.00;;;22.90;99.90;;;;;;5080794;28;20048;-48
2022/08/23 10:18:40;;;;;;;5.97;2.03;;;22.90;99.90;;;;;;5072744;28;20118;-49
2022/08/23 10:21:19;;;;;;;4.80;1.73;;;22.80;99.90;;;;;;5062427;28;20136;-49
2022/08/23 10:24:13;;;;;;;6.55;2.63;;;22.60;99.90;;;;;;5089492;28;20048;-50
2022/08/23 10:30:06;;;;;;;6.43;1.90;;;22.60;99.90;;;;;;5041682;28;20084;-49
2022/08/23 10:32:53;;;;;;;2.42;1.67;;;22.60;99.90;;;;;;5073611;28;20044;-48
2022/08/23 10:35:41;;;;;;;2.28;1.95;;;22.50;99.90;;;;;;5088467;28;20500;-48
2022/08/23 10:38:34;;;;;;;6.28;1.95;;;22.60;99.90;;;;;;5072429;28;20052;-48
2022/08/23 10:41:29;;;;;;;4.60;1.70;;;22.80;99.90;;;;;;5092929;28;20036;-48
2022/08/23 10:44:22;;;;;;;2.53;1.70;;;22.90;99.90;;;;;;5092340;28;20048;-50
2022/08/23 10:47:07;;;;;;;4.85;1.42;;;22.90;98.80;;;;;;5090316;28;20044;-49
2022/08/23 10:49:38;;;;;;;3.80;2.15;;;22.90;99.60;;;;;;5065499;28;20047;-50
2022/08/23 10:52:19;;;;;;;4.88;1.60;;;22.90;99.90;;;;;;5068915;28;20483;-48
2022/08/23 10:54:59;;;;;;;3.30;1.85;;;22.90;99.60;;;;;;5092571;28;20044;-48
2022/08/23 10:57:38;;;;;;;3.45;1.80;;;22.90;98.80;;;;;;5086362;28;20036;-49
2022/08/23 11:00:07;;;;;;;;;;;22.90;99.00;;;;;;5074767;28;20436;-49
2022/08/23 11:02:58;;;;;;;2.30;1.73;;;23.00;99.40;;;;;;5062207;28;19920;-48
2022/08/23 11:05:34;;;;;;;4.13;2.08;;;23.00;98.70;;;;;;5065329;28;20399;-48
2022/08/23 11:08:31;;;;;;;4.25;1.98;;;23.00;99.90;;;;;;5067071;28;20036;-49
2022/08/23 11:10:59;;;;;;;4.25;1.95;;;23.10;99.90;;;;;;5072682;28;20048;-50
2022/08/23 11:13:33;;;;;;;4.15;1.75;;;23.20;98.70;;;;;;5074916;28;20093;-48
2022/08/23 11:16:19;;;;;;;2.33;1.88;;;23.20;99.90;;;;;;5076280;28;20043;-48
2022/08/23 11:18:48;;;;;;;3.65;1.90;;;23.10;99.90;;;;;;5091823;28;20044;-47
2022/08/23 11:21:24;;;;;;;4.93;1.95;;;23.10;99.90;;;;;;5092985;28;20051;-48
2022/08/23 11:23:58;;;;;;;2.28;2.00;;;23.10;99.70;;;;;;5083240;28;20040;-48
2022/08/23 11:26:27;;;;;;;5.53;1.98;;;23.00;99.90;;;;;;5092661;28;20046;-49
2022/08/23 11:28:54;;;;;;;;;;;23.00;99.40;;;;;;5093163;28;20447;-50
2022/08/23 11:31:50;;;;;;;4.82;2.20;;;22.90;99.90;;;;;;5082594;28;20291;-48
2022/08/23 11:34:27;;;;;;;6.68;1.98;;;23.00;99.90;;;;;;5051689;28;20044;-49
2022/08/23 11:37:17;;;;;;;2.97;1.90;;;23.00;99.20;;;;;;5092362;28;20040;-47
2022/08/23 11:39:59;;;;;;;3.22;1.75;;;23.00;99.80;;;;;;5091769;28;20040;-50
2022/08/23 11:42:48;;;;;;;2.22;1.80;;;23.10;99.70;;;;;;5092740;28;20040;-51
2022/08/23 11:45:34;;;;;;;4.15;2.00;;;23.20;99.90;;;;;;5075403;28;20087;-48
2022/08/23 11:48:35;;;;;;;2.22;1.60;;;23.30;99.90;;;;;;5067627;28;20588;-48
2022/08/23 11:51:36;;;;;;;6.85;2.00;;;23.30;99.40;;;;;;5085523;28;20051;-48
2022/08/23 11:54:25;;;;;;;7.65;2.28;;;23.30;99.80;;;;;;5092727;28;20051;-48
2022/08/23 11:57:19;;;;;;;5.95;2.35;;;23.30;99.50;;;;;;5079904;28;20040;-48
2022/08/23 12:00:01;;;;;;;2.83;2.30;;;23.30;99.90;;;;;;5041741;28;20504;-50
2022/08/23 12:02:37;;;;;;;4.13;2.00;;;23.40;98.80;;;;;;5080904;28;20052;-48
2022/08/23 12:05:31;;;;;;;3.40;2.08;;;23.40;99.50;;;;;;5093213;28;20435;-51
2022/08/23 12:08:04;;;;;;;2.67;2.05;;;23.50;99.60;;;;;;5090973;28;20055;-48
2022/08/23 12:10:40;;;;;;;3.47;2.22;;;23.70;98.70;;;;;;5092453;28;20051;-49
2022/08/23 12:13:19;;;;;;;4.47;2.05;;;23.70;98.70;;;;;;5069677;28;20393;-48
2022/08/23 12:16:08;;;;;;;6.60;2.33;;;23.70;99.90;;;;;;5068578;28;20468;-51
2022/08/23 12:18:46;;;;;;;2.47;2.20;;;23.90;99.90;;;;;;5079379;28;20036;-49
2022/08/23 12:21:21;;;;;;;3.22;1.90;;;23.80;99.30;;;;;;5082202;28;20056;-48
2022/08/23 12:23:52;;;;;;;3.75;2.10;;;23.80;99.60;;;;;;5092522;28;20032;-49
2022/08/23 12:26:32;;;;;;;4.95;2.20;;;23.70;97.70;;;;;;5090866;28;20052;-50
2022/08/23 12:29:06;;;;;;;3.25;2.35;;;23.60;99.50;;;;;;5085116;28;20044;-49
2022/08/23 12:31:59;;;;;;;2.33;1.98;;;23.80;99.50;;;;;;5068847;28;20051;-47
2022/08/23 12:34:59;;;;;;;6.28;2.40;;;23.80;99.90;;;;;;5073247;28;20079;-48
2022/08/23 12:37:52;;;;;;;3.30;1.80;;;23.80;98.40;;;;;;5080330;28;20523;-48
2022/08/23 12:40:38;;;;;;;3.38;2.20;;;23.90;98.70;;;;;;5091864;28;20036;-48
2022/08/23 12:43:09;;;;;;;5.40;2.10;;;24.00;98.90;;;;;;5091745;28;20119;-49
2022/08/23 12:45:57;;;;;;;2.65;2.00;;;24.00;99.20;;;;;;5092098;28;20044;-48
2022/08/23 12:48:27;;;;;;;2.78;1.90;;;24.00;98.80;;;;;;5075773;28;20044;-48
2022/08/23 12:51:20;;;;;;;3.97;2.10;;;24.10;99.90;;;;;;5068494;28;20051;-48
2022/08/23 12:53:47;;;;;;;4.47;2.30;;;24.30;98.90;;;;;;5077435;28;20241;-48
2022/08/23 12:56:23;;;;;;;3.10;1.88;;;24.30;98.10;;;;;;5090899;28;20052;-48
2022/08/23 12:59:03;;;;;;;2.58;2.13;;;24.10;97.20;;;;;;5092398;28;20072;-50
2022/08/23 13:01:33;;;;;;;2.95;2.15;;;24.00;97.80;;;;;;5074067;28;20047;-48
2022/08/23 13:04:13;;;;;;;8.10;2.50;;;24.10;98.60;;;;;;5087253;28;20495;-48
2022/08/23 13:06:57;;;;;;;4.22;2.60;;;24.00;97.90;;;;;;5092190;28;20036;-49
2022/08/23 13:09:36;;;;;;;3.65;2.10;;;24.10;99.20;;;;;;5092280;28;20044;-48
2022/08/23 13:12:06;;;;;;;3.28;2.10;;;24.10;98.40;;;;;;5073972;28;20093;-48
2022/08/23 13:14:45;;;;;;;7.05;2.17;;;24.10;96.90;;;;;;5091585;28;20376;-49
2022/08/23 13:17:21;;;;;;;5.40;2.38;;;24.20;97.70;;;;;;5091868;28;20395;-51
2022/08/23 13:19:53;;;;;;;4.53;2.38;;;24.20;98.00;;;;;;5089206;28;20501;-49
2022/08/23 13:22:24;;;;;;;3.67;2.30;;;24.20;97.90;;;;;;5075023;28;20044;-48
2022/08/23 13:25:03;;;;;;;6.50;2.70;;;24.20;98.20;;;;;;5091221;28;20044;-49
2022/08/23 13:27:51;;;;;;;;;;;24.30;97.00;;;;;;5092160;28;20460;-50
2022/08/23 13:30:25;;;;;;;2.60;1.77;;;24.30;96.90;;;;;;5077791;28;19925;-49
2022/08/23 13:33:11;;;;;;;3.55;2.00;;;24.30;97.40;;;;;;5090533;28;20052;-50
2022/08/23 13:35:43;;;;;;;3.88;1.90;;;24.20;97.30;;;;;;5091040;28;20047;-49
2022/08/23 13:38:24;;;;;;;2.15;1.77;;;24.30;97.70;;;;;;5084998;28;20067;-48
2022/08/23 13:40:59;;;;;;;3.97;2.00;;;24.30;97.70;;;;;;5091717;28;20042;-48
2022/08/23 13:43:29;;;;;;;3.67;1.88;;;24.30;97.00;;;;;;5074839;28;20044;-50